Time;durP1;ratioP1;P1;durP2;ratioP2;P2;SDS_P1;SDS_P2;PMS_P1;PMS_P2;Temp;Humidity;BMP_temperature;BMP_pressure;BME280_temperature;BME280_humidity;BME280_pressure;Samples;Min_cycle;Max_cycle;Signal;HPM_P1;HPM_P2
2021/12/01 00:00:38;;;;;;;0.75;0.28;;;9.70;99.90;;;;;;5067368;28;20048;-60
2021/12/01 00:03:05;;;;;;;1.83;0.28;;;9.70;99.90;;;;;;5067900;28;20047;-61
2021/12/01 00:05:36;;;;;;;0.75;0.30;;;9.70;99.90;;;;;;5067729;28;20373;-59
2021/12/01 00:08:04;;;;;;;3.08;0.25;;;9.70;99.90;;;;;;5056101;28;20077;-59
2021/12/01 00:10:34;;;;;;;3.35;0.30;;;9.70;99.90;;;;;;5057691;28;20052;-59
2021/12/01 00:13:05;;;;;;;1.67;0.20;;;9.60;99.90;;;;;;5067537;28;20480;-59
2021/12/01 00:15:33;;;;;;;2.25;0.38;;;9.60;99.90;;;;;;5066082;28;20052;-58
2021/12/01 00:18:01;;;;;;;2.65;0.30;;;9.60;99.90;;;;;;5067031;28;20041;-58
2021/12/01 00:20:28;;;;;;;2.03;0.73;;;9.60;99.90;;;;;;5067321;28;20064;-59
2021/12/01 00:22:56;;;;;;;1.10;0.05;;;9.60;99.90;;;;;;5061195;28;20047;-58
2021/12/01 00:25:25;;;;;;;1.38;0.15;;;9.60;99.90;;;;;;5066364;28;20064;-58
2021/12/01 00:27:54;;;;;;;0.15;0.10;;;9.60;99.90;;;;;;5067588;28;20048;-58
2021/12/01 00:30:23;;;;;;;3.38;0.22;;;9.60;99.90;;;;;;5065837;28;20041;-59
2021/12/01 00:32:55;;;;;;;0.52;0.20;;;9.60;99.90;;;;;;5067267;28;20048;-59
2021/12/01 00:35:24;;;;;;;1.25;0.17;;;9.60;99.90;;;;;;5067200;28;20052;-58
2021/12/01 00:37:51;;;;;;;5.00;0.40;;;9.60;99.90;;;;;;5061840;28;20049;-58
2021/12/01 00:40:20;;;;;;;3.22;1.30;;;9.60;99.90;;;;;;5056946;28;20207;-58
2021/12/01 00:42:48;;;;;;;1.48;0.30;;;9.50;99.90;;;;;;5066143;28;20734;-58
2021/12/01 00:45:18;;;;;;;1.08;0.20;;;9.50;99.90;;;;;;5066854;28;20051;-58
2021/12/01 00:47:49;;;;;;;4.80;0.65;;;9.40;99.90;;;;;;5068962;28;20550;-58
2021/12/01 00:50:28;;;;;;;1.75;0.28;;;9.40;99.90;;;;;;5070772;28;20044;-58
2021/12/01 00:52:59;;;;;;;1.38;0.22;;;9.30;99.90;;;;;;5066433;28;20049;-58
2021/12/01 00:55:27;;;;;;;5.47;0.55;;;9.20;99.90;;;;;;5070543;28;20037;-59
2021/12/01 00:57:57;;;;;;;5.60;0.60;;;9.20;99.90;;;;;;5070287;28;20052;-59
2021/12/01 01:00:27;;;;;;;4.43;0.73;;;9.10;99.90;;;;;;5070479;28;20048;-58
2021/12/01 01:02:58;;;;;;;5.28;1.05;;;9.00;99.90;;;;;;5067340;28;20093;-58
2021/12/01 01:05:26;;;;;;;4.40;0.93;;;9.00;99.90;;;;;;5065296;28;20067;-59
2021/12/01 01:07:54;;;;;;;4.25;0.90;;;8.90;99.90;;;;;;5067512;28;20083;-59
2021/12/01 01:18:30;;;;;;;5.60;0.68;;;8.60;99.90;;;;;;5070186;28;20507;-61
2021/12/01 01:20:58;;;;;;;7.80;1.15;;;8.60;99.90;;;;;;5069917;28;20056;-63
2021/12/01 01:23:29;;;;;;;8.52;0.68;;;8.50;99.90;;;;;;5067874;28;20488;-62
2021/12/01 01:25:58;;;;;;;6.63;0.93;;;8.50;99.90;;;;;;5070117;28;20044;-63
2021/12/01 01:28:26;;;;;;;4.30;0.82;;;8.40;99.90;;;;;;5068838;28;20403;-62
2021/12/01 01:30:54;;;;;;;9.27;0.90;;;8.50;99.90;;;;;;5068699;28;20055;-62
2021/12/01 01:33:23;;;;;;;2.05;0.50;;;8.40;99.90;;;;;;5069956;28;20051;-61
2021/12/01 01:35:52;;;;;;;5.05;0.85;;;8.40;99.90;;;;;;5068809;28;20373;-60
2021/12/01 01:38:20;;;;;;;11.40;1.38;;;8.40;99.90;;;;;;5064605;28;20428;-63
2021/12/01 01:40:49;;;;;;;10.85;0.90;;;8.40;99.90;;;;;;5063035;28;20053;-60
2021/12/01 01:43:17;;;;;;;5.70;0.57;;;8.40;99.90;;;;;;5069661;28;20041;-59
2021/12/01 01:45:45;;;;;;;12.80;1.33;;;8.40;99.90;;;;;;5069806;28;20135;-59
2021/12/01 01:48:14;;;;;;;6.93;0.98;;;8.40;99.90;;;;;;5069709;28;20032;-60
2021/12/01 01:50:43;;;;;;;16.77;1.75;;;8.30;99.90;;;;;;5069780;28;20056;-59
2021/12/01 01:53:17;;;;;;;14.68;1.17;;;8.30;99.90;;;;;;5064308;28;20052;-63
2021/12/01 01:55:49;;;;;;;10.23;1.60;;;8.30;99.90;;;;;;5064815;28;20392;-62
2021/12/01 01:58:21;;;;;;;6.32;1.05;;;8.30;99.90;;;;;;5068392;28;20400;-62
2021/12/01 02:00:52;;;;;;;5.93;1.02;;;8.30;99.90;;;;;;5067502;28;20052;-61
2021/12/01 02:03:23;;;;;;;10.18;1.25;;;8.30;99.90;;;;;;5067806;28;20060;-60
2021/12/01 02:05:51;;;;;;;14.82;1.27;;;8.30;99.90;;;;;;5069327;28;20059;-62
2021/12/01 02:08:20;;;;;;;13.55;1.42;;;8.30;99.90;;;;;;5062032;28;20044;-61
2021/12/01 02:10:50;;;;;;;12.40;1.27;;;8.30;99.90;;;;;;5062289;28;20044;-59
2021/12/01 02:13:19;;;;;;;14.02;1.65;;;8.20;99.90;;;;;;5069065;28;20056;-59
2021/12/01 02:15:49;;;;;;;17.38;1.83;;;8.20;99.90;;;;;;5068619;28;20047;-58
2021/12/01 02:18:17;;;;;;;7.55;1.33;;;8.20;99.90;;;;;;5068977;28;20057;-58
2021/12/01 02:21:05;;;;;;;12.30;0.98;;;8.10;99.90;;;;;;5068659;28;20484;-59
2021/12/01 02:23:35;;;;;;;10.32;1.75;;;8.00;99.90;;;;;;5065236;28;21022;-58
2021/12/01 02:26:04;;;;;;;8.82;1.30;;;7.90;99.90;;;;;;5067779;28;20419;-59
2021/12/01 02:28:32;;;;;;;12.95;1.00;;;7.80;99.90;;;;;;5067485;28;20045;-58
2021/12/01 02:31:00;;;;;;;13.43;1.23;;;7.80;99.90;;;;;;5062406;28;20048;-59
2021/12/01 02:33:28;;;;;;;9.45;1.23;;;7.80;99.90;;;;;;5051169;28;20516;-59
2021/12/01 02:35:57;;;;;;;11.23;1.40;;;7.70;99.90;;;;;;5072073;28;20404;-59
2021/12/01 02:38:25;;;;;;;11.30;2.10;;;7.60;99.90;;;;;;5072143;28;20048;-59
2021/12/01 02:40:53;;;;;;;7.47;1.02;;;7.60;99.90;;;;;;5070362;28;20048;-59
2021/12/01 02:43:24;;;;;;;15.50;1.00;;;7.60;99.90;;;;;;5070545;28;20053;-59
2021/12/01 02:45:53;;;;;;;9.00;1.35;;;7.60;99.90;;;;;;5068353;28;20048;-59
2021/12/01 02:48:23;;;;;;;9.23;1.63;;;7.50;99.90;;;;;;5070799;28;20051;-59
2021/12/01 02:50:53;;;;;;;11.95;1.08;;;7.60;99.90;;;;;;5071888;28;20423;-60
2021/12/01 02:53:22;;;;;;;6.70;0.70;;;7.50;99.90;;;;;;5072078;28;20059;-59
2021/12/01 02:55:57;;;;;;;12.35;2.25;;;7.50;99.90;;;;;;5072042;28;20049;-60
2021/12/01 02:58:30;;;;;;;16.98;2.88;;;7.40;99.90;;;;;;5070964;28;20064;-59
2021/12/01 03:00:59;;;;;;;9.73;1.05;;;7.40;99.90;;;;;;5071597;28;20048;-59
2021/12/01 03:03:27;;;;;;;10.23;1.30;;;7.40;99.90;;;;;;5071794;28;20049;-58
2021/12/01 03:05:57;;;;;;;2.92;0.65;;;7.40;99.90;;;;;;5070382;28;20047;-59
2021/12/01 03:08:25;;;;;;;6.50;0.95;;;7.30;99.90;;;;;;5071721;28;20048;-58
2021/12/01 03:10:54;;;;;;;10.18;1.52;;;7.30;99.90;;;;;;5071770;28;20049;-59
2021/12/01 03:13:23;;;;;;;9.15;0.80;;;7.30;99.90;;;;;;5071232;28;20586;-59
2021/12/01 03:15:50;;;;;;;10.43;1.85;;;7.30;99.90;;;;;;5070720;28;20167;-58
2021/12/01 03:18:18;;;;;;;7.93;1.27;;;7.20;99.90;;;;;;5071939;28;20059;-59
2021/12/01 03:20:47;;;;;;;4.40;0.55;;;7.30;99.90;;;;;;5070150;28;20049;-59
2021/12/01 03:23:16;;;;;;;4.97;0.50;;;7.20;99.90;;;;;;5070286;28;20514;-59
2021/12/01 03:25:44;;;;;;;7.38;0.70;;;7.20;99.90;;;;;;5071492;28;20653;-58
2021/12/01 03:28:13;;;;;;;3.53;0.60;;;7.20;99.90;;;;;;5071374;28;20491;-59
2021/12/01 03:30:41;;;;;;;8.60;1.25;;;7.10;99.90;;;;;;5070620;28;20060;-62
2021/12/01 03:33:12;;;;;;;3.35;0.32;;;7.10;99.90;;;;;;5071610;28;20040;-61
2021/12/01 03:35:42;;;;;;;5.95;0.52;;;7.10;99.90;;;;;;5071512;28;20048;-62
2021/12/01 03:38:10;;;;;;;6.53;0.63;;;7.00;99.90;;;;;;5071456;28;20048;-62
2021/12/01 03:40:38;;;;;;;0.45;0.10;;;7.00;99.90;;;;;;5071184;28;20037;-63
2021/12/01 03:43:06;;;;;;;8.80;0.55;;;7.00;99.90;;;;;;5071408;28;20036;-64
2021/12/01 03:45:35;;;;;;;8.60;0.73;;;6.90;99.90;;;;;;5071482;28;20396;-62
2021/12/01 03:48:03;;;;;;;2.92;0.25;;;6.90;99.90;;;;;;5071548;28;20059;-61
2021/12/01 03:50:31;;;;;;;4.95;0.22;;;6.90;99.90;;;;;;5071536;28;20041;-60
2021/12/01 03:52:59;;;;;;;3.83;0.20;;;6.80;99.90;;;;;;5071453;28;20038;-61
2021/12/01 03:55:27;;;;;;;4.90;0.40;;;6.80;99.90;;;;;;5071107;28;20049;-60
2021/12/01 03:57:55;;;;;;;2.78;0.45;;;6.80;99.90;;;;;;5071047;28;20048;-60
2021/12/01 04:00:23;;;;;;;2.80;0.63;;;6.80;99.90;;;;;;5069897;28;20114;-60
2021/12/01 04:02:50;;;;;;;2.75;0.70;;;6.70;99.90;;;;;;5071284;28;20083;-60
2021/12/01 04:05:18;;;;;;;7.60;0.50;;;6.80;99.90;;;;;;5071464;28;20067;-64
2021/12/01 04:07:46;;;;;;;1.10;0.20;;;6.70;99.90;;;;;;5071337;28;20055;-65
2021/12/01 04:10:15;;;;;;;4.88;0.40;;;6.70;99.90;;;;;;5071049;28;20044;-64
2021/12/01 04:12:43;;;;;;;2.00;0.20;;;6.70;99.90;;;;;;5071266;28;20052;-63
2021/12/01 04:15:13;;;;;;;7.20;0.60;;;6.70;99.90;;;;;;5070875;28;20060;-64
2021/12/01 04:17:42;;;;;;;5.47;0.60;;;6.70;99.90;;;;;;5070919;28;20060;-61
2021/12/01 04:20:12;;;;;;;4.37;0.23;;;6.70;99.90;;;;;;5069838;28;20045;-60
2021/12/01 04:22:41;;;;;;;4.30;0.98;;;6.70;99.90;;;;;;5074404;28;20296;-60
2021/12/01 04:25:10;;;;;;;5.88;0.68;;;6.70;99.90;;;;;;5074476;28;20408;-60
2021/12/01 04:27:39;;;;;;;6.47;0.38;;;6.70;99.90;;;;;;5074770;28;20313;-60
2021/12/01 04:30:10;;;;;;;8.10;0.63;;;6.70;99.90;;;;;;5073403;28;20053;-60
2021/12/01 04:32:38;;;;;;;7.38;1.08;;;6.60;99.90;;;;;;5074773;28;20045;-61
2021/12/01 04:35:07;;;;;;;8.20;0.60;;;6.60;99.90;;;;;;5073224;28;20057;-60
2021/12/01 04:37:36;;;;;;;4.13;0.30;;;6.60;99.90;;;;;;5074565;28;20040;-61
2021/12/01 04:40:05;;;;;;;2.05;0.35;;;6.60;99.90;;;;;;5074573;28;20056;-60
2021/12/01 04:42:34;;;;;;;10.10;1.17;;;6.60;99.90;;;;;;5074809;28;20045;-60
2021/12/01 04:45:03;;;;;;;4.13;0.60;;;6.50;99.90;;;;;;5074711;28;20036;-61
2021/12/01 04:47:37;;;;;;;3.63;1.05;;;6.60;99.90;;;;;;5074617;28;20078;-60
2021/12/01 04:50:05;;;;;;;4.38;0.45;;;6.50;99.90;;;;;;5073790;28;20044;-60
2021/12/01 04:52:33;;;;;;;3.92;0.65;;;6.50;99.90;;;;;;5074290;28;20041;-60
2021/12/01 04:55:01;;;;;;;8.35;0.40;;;6.50;99.90;;;;;;5074093;28;20048;-61
2021/12/01 04:57:29;;;;;;;4.38;0.43;;;6.50;99.90;;;;;;5073122;28;20396;-61
2021/12/01 04:59:56;;;;;;;2.70;0.40;;;6.60;99.90;;;;;;5074156;28;20102;-60
2021/12/01 05:02:24;;;;;;;2.42;0.50;;;6.50;99.90;;;;;;5074284;28;20059;-60
2021/12/01 05:04:52;;;;;;;3.05;0.50;;;6.50;99.90;;;;;;5072752;28;20044;-60
2021/12/01 05:07:19;;;;;;;5.70;0.98;;;6.60;99.90;;;;;;5073891;28;20060;-60
2021/12/01 05:09:47;;;;;;;9.00;2.10;;;6.50;99.90;;;;;;5074103;28;20515;-60
2021/12/01 05:12:14;;;;;;;9.25;1.02;;;6.60;99.90;;;;;;5074105;28;20419;-60
2021/12/01 05:14:42;;;;;;;7.22;1.52;;;6.60;99.90;;;;;;5073941;28;20044;-60
2021/12/01 05:17:09;;;;;;;7.68;1.80;;;6.60;99.90;;;;;;5074000;28;20052;-60
2021/12/01 05:19:37;;;;;;;10.00;1.83;;;6.60;99.90;;;;;;5073575;28;20041;-59
2021/12/01 05:22:06;;;;;;;5.88;0.98;;;6.60;99.90;;;;;;5072632;28;20045;-60
2021/12/01 05:24:33;;;;;;;10.23;1.20;;;6.60;99.90;;;;;;5073376;28;20033;-60
2021/12/01 05:27:01;;;;;;;11.52;1.17;;;6.70;99.90;;;;;;5073969;28;20392;-62
2021/12/01 05:29:29;;;;;;;3.33;0.90;;;6.80;99.90;;;;;;5073598;28;20045;-60
2021/12/01 05:31:57;;;;;;;9.68;1.27;;;6.80;99.90;;;;;;5071897;28;20369;-61
2021/12/01 05:34:26;;;;;;;5.80;0.95;;;6.80;99.90;;;;;;5072933;28;20051;-62
2021/12/01 05:36:59;;;;;;;13.60;2.47;;;6.80;99.90;;;;;;5072302;28;20037;-60
2021/12/01 05:39:28;;;;;;;10.20;0.73;;;6.80;99.90;;;;;;5073039;28;20067;-60
2021/12/01 05:41:57;;;;;;;9.90;0.90;;;6.90;99.90;;;;;;5072276;28;20067;-60
2021/12/01 05:44:25;;;;;;;18.55;1.42;;;6.80;99.90;;;;;;5073328;28;20041;-60
2021/12/01 05:46:52;;;;;;;12.13;1.85;;;6.80;99.90;;;;;;5073153;28;20399;-61
2021/12/01 05:49:20;;;;;;;14.38;2.33;;;6.90;99.90;;;;;;5079004;28;20401;-60
2021/12/01 05:51:48;;;;;;;24.88;2.17;;;6.90;99.90;;;;;;5049612;28;20045;-61
2021/12/01 05:54:15;;;;;;;16.50;1.65;;;6.90;99.90;;;;;;5060029;28;20055;-61
2021/12/01 05:56:43;;;;;;;23.10;2.13;;;7.00;99.90;;;;;;5067551;28;20040;-61
2021/12/01 05:59:11;;;;;;;15.65;2.28;;;7.00;99.90;;;;;;5069004;28;20044;-61
2021/12/01 06:01:39;;;;;;;24.65;1.67;;;7.00;99.90;;;;;;5068725;28;20044;-61
2021/12/01 06:04:06;;;;;;;19.08;1.70;;;7.00;99.90;;;;;;5058544;28;20486;-62
2021/12/01 06:06:34;;;;;;;19.65;2.05;;;7.00;99.90;;;;;;5065191;28;20094;-61
2021/12/01 06:09:03;;;;;;;13.18;1.75;;;6.90;99.90;;;;;;5068238;28;20044;-60
2021/12/01 06:11:31;;;;;;;21.38;1.88;;;6.90;99.90;;;;;;5067703;28;20547;-61
2021/12/01 06:13:59;;;;;;;14.98;1.55;;;6.80;99.90;;;;;;5066083;28;20403;-61
2021/12/01 06:16:27;;;;;;;15.60;1.52;;;6.80;99.90;;;;;;5065430;28;20056;-61
2021/12/01 06:18:55;;;;;;;9.40;1.42;;;6.70;99.90;;;;;;5055049;28;20041;-61
2021/12/01 06:21:23;;;;;;;9.50;1.30;;;6.70;99.90;;;;;;5049247;28;20055;-60
2021/12/01 06:23:50;;;;;;;12.85;1.83;;;6.60;99.90;;;;;;5065374;28;20056;-66
2021/12/01 06:26:18;;;;;;;18.48;2.17;;;6.60;99.90;;;;;;5069488;28;20048;-65
2021/12/01 06:28:46;;;;;;;18.73;2.17;;;6.50;99.90;;;;;;5069114;28;20052;-65
2021/12/01 06:31:13;;;;;;;14.13;1.77;;;6.50;99.90;;;;;;5067915;28;20059;-65
2021/12/01 06:33:41;;;;;;;23.05;2.35;;;6.50;99.90;;;;;;5058647;28;20044;-65
2021/12/01 06:36:09;;;;;;;11.05;2.58;;;6.50;99.90;;;;;;5048914;28;20405;-63
2021/12/01 06:38:39;;;;;;;22.80;1.90;;;6.50;99.90;;;;;;5061775;28;20032;-65
2021/12/01 06:41:06;;;;;;;16.63;1.90;;;6.60;99.90;;;;;;5068902;28;20045;-66
2021/12/01 06:43:34;;;;;;;18.55;2.05;;;6.50;99.90;;;;;;5068275;28;20048;-66
2021/12/01 06:46:02;;;;;;;13.23;1.85;;;6.50;99.90;;;;;;5067156;28;20059;-65
2021/12/01 06:48:30;;;;;;;22.52;2.80;;;6.50;99.90;;;;;;5057582;28;20370;-66
2021/12/01 06:50:57;;;;;;;14.60;1.67;;;6.50;99.90;;;;;;5044444;28;20781;-65
2021/12/01 06:53:26;;;;;;;16.60;2.28;;;6.50;99.90;;;;;;5061533;28;20040;-65
2021/12/01 06:55:54;;;;;;;22.70;2.78;;;6.60;99.90;;;;;;5068626;28;20044;-65
2021/12/01 06:58:22;;;;;;;16.27;2.30;;;6.60;99.90;;;;;;5068089;28;20060;-65
2021/12/01 07:00:49;;;;;;;12.43;1.80;;;6.60;99.90;;;;;;5050298;28;20055;-66
2021/12/01 07:03:17;;;;;;;14.00;2.65;;;6.60;99.90;;;;;;5060662;28;20056;-61
2021/12/01 07:05:46;;;;;;;16.83;2.58;;;6.60;99.90;;;;;;5045320;28;20053;-66
2021/12/01 07:08:14;;;;;;;16.08;2.00;;;6.60;99.90;;;;;;5057205;28;20068;-62
2021/12/01 07:10:41;;;;;;;13.05;1.75;;;6.60;99.90;;;;;;5067181;28;20063;-63
2021/12/01 07:13:09;;;;;;;17.08;1.90;;;6.60;99.90;;;;;;5065715;28;20055;-61
2021/12/01 07:15:36;;;;;;;22.90;2.83;;;6.60;99.90;;;;;;5067140;28;20049;-61
2021/12/01 07:18:04;;;;;;;21.92;4.22;;;6.60;99.90;;;;;;5064905;28;20480;-62
2021/12/01 07:20:32;;;;;;;16.25;1.77;;;6.60;99.90;;;;;;5047926;28;20049;-62
2021/12/01 07:23:03;;;;;;;37.78;2.80;;;6.60;99.90;;;;;;5057225;28;20044;-61
2021/12/01 07:25:36;;;;;;;22.92;3.10;;;6.50;99.90;;;;;;5066705;28;20040;-62
2021/12/01 07:28:04;;;;;;;14.77;1.98;;;6.50;99.90;;;;;;5068064;28;20048;-62
2021/12/01 07:30:35;;;;;;;15.35;1.75;;;6.50;99.90;;;;;;5068350;28;20045;-65
2021/12/01 07:33:03;;;;;;;13.73;2.00;;;6.50;99.90;;;;;;5067280;28;20048;-66
2021/12/01 07:35:31;;;;;;;18.75;2.80;;;6.50;99.90;;;;;;5046660;28;20063;-65
2021/12/01 07:37:58;;;;;;;14.40;2.08;;;6.50;99.90;;;;;;5055435;28;20057;-64
2021/12/01 07:40:26;;;;;;;18.25;1.70;;;6.50;99.90;;;;;;5066531;28;20045;-65
2021/12/01 07:42:54;;;;;;;15.23;1.65;;;6.40;99.90;;;;;;5062687;28;20048;-61
2021/12/01 07:45:21;;;;;;;18.52;1.80;;;6.40;99.90;;;;;;5068119;28;20127;-61
2021/12/01 07:47:49;;;;;;;12.77;2.33;;;6.40;99.90;;;;;;5041249;28;20485;-61
2021/12/01 07:50:17;;;;;;;12.77;1.60;;;6.30;99.90;;;;;;5044681;28;20052;-61
2021/12/01 07:52:45;;;;;;;19.25;3.42;;;6.30;99.90;;;;;;5054521;28;20053;-60
2021/12/01 07:55:13;;;;;;;12.07;2.10;;;6.40;99.90;;;;;;5068100;28;20044;-61
2021/12/01 07:57:42;;;;;;;12.02;1.55;;;6.40;99.90;;;;;;5071541;28;20048;-62
2021/12/01 08:00:10;;;;;;;23.67;3.93;;;6.40;99.90;;;;;;5070418;28;20044;-61
2021/12/01 08:02:38;;;;;;;16.48;1.70;;;6.30;99.90;;;;;;5068235;28;20563;-62
2021/12/01 08:05:06;;;;;;;11.85;1.75;;;6.30;99.90;;;;;;5052286;28;20473;-60
2021/12/01 08:07:38;;;;;;;17.00;1.60;;;6.30;99.90;;;;;;5052754;28;20765;-61
2021/12/01 08:10:07;;;;;;;14.65;1.52;;;6.30;99.90;;;;;;5059788;28;20675;-64
2021/12/01 08:12:35;;;;;;;12.00;1.30;;;6.30;99.90;;;;;;5056705;28;20044;-64
2021/12/01 08:15:05;;;;;;;20.67;1.95;;;6.40;99.90;;;;;;5048672;28;20624;-61
2021/12/01 08:17:32;;;;;;;11.27;2.15;;;6.30;99.90;;;;;;5053983;28;20055;-65
2021/12/01 08:20:00;;;;;;;9.52;1.63;;;6.30;99.90;;;;;;5063379;28;20056;-60
2021/12/01 08:22:28;;;;;;;23.20;4.32;;;6.40;99.90;;;;;;5052045;28;20048;-61
2021/12/01 08:24:59;;;;;;;18.10;3.03;;;6.40;99.90;;;;;;5048558;28;20037;-61
2021/12/01 08:27:28;;;;;;;16.92;2.20;;;6.40;99.90;;;;;;5052998;28;20048;-62
2021/12/01 08:29:56;;;;;;;23.33;2.33;;;6.40;99.90;;;;;;5069448;28;20036;-62
2021/12/01 08:32:24;;;;;;;17.83;1.88;;;6.30;99.90;;;;;;5069230;28;20059;-61
2021/12/01 08:34:51;;;;;;;13.55;1.98;;;6.30;99.90;;;;;;5069840;28;20051;-62
2021/12/01 08:37:20;;;;;;;27.52;2.45;;;6.30;99.90;;;;;;5069808;28;20048;-63
2021/12/01 08:39:50;;;;;;;11.77;1.92;;;6.40;99.90;;;;;;5070812;28;20045;-61
2021/12/01 08:42:19;;;;;;;35.28;3.72;;;6.40;99.90;;;;;;5070261;28;20498;-62
2021/12/01 08:44:48;;;;;;;;;;;6.40;99.90;;;;;;5068682;28;20051;-61
2021/12/01 08:47:17;;;;;;;14.88;2.88;;;6.40;99.90;;;;;;5069834;28;19920;-61
2021/12/01 08:49:49;;;;;;;20.73;6.53;;;6.50;99.90;;;;;;5051280;28;20041;-61
2021/12/01 08:52:16;;;;;;;17.38;2.38;;;6.50;99.90;;;;;;5060875;28;20063;-61
2021/12/01 08:54:44;;;;;;;24.38;2.90;;;6.50;99.90;;;;;;5070429;28;20047;-61
2021/12/01 08:57:12;;;;;;;24.98;1.95;;;6.60;99.90;;;;;;5069449;28;20403;-61
2021/12/01 08:59:40;;;;;;;10.43;1.55;;;6.70;99.90;;;;;;5070946;28;20044;-61
2021/12/01 09:02:07;;;;;;;16.77;1.65;;;6.70;99.90;;;;;;5070661;28;20045;-61
2021/12/01 09:04:36;;;;;;;20.17;2.55;;;6.70;99.90;;;;;;5051337;28;20083;-61
2021/12/01 09:07:04;;;;;;;14.23;2.45;;;6.70;99.90;;;;;;5049367;28;20047;-60
2021/12/01 09:09:32;;;;;;;19.00;1.83;;;6.70;99.90;;;;;;5056586;28;20047;-61
2021/12/01 09:12:00;;;;;;;13.05;1.30;;;6.70;99.90;;;;;;5070507;28;20077;-62
2021/12/01 09:14:28;;;;;;;12.68;2.22;;;6.80;99.90;;;;;;5069030;28;20051;-60
2021/12/01 09:16:56;;;;;;;19.40;2.28;;;6.80;99.90;;;;;;5070711;28;20036;-60
2021/12/01 09:19:24;;;;;;;15.32;2.08;;;6.80;99.90;;;;;;5054856;28;20037;-62
2021/12/01 09:21:51;;;;;;;26.45;7.22;;;6.80;99.90;;;;;;5057731;28;20053;-60
2021/12/01 09:24:21;;;;;;;16.52;1.75;;;6.90;99.90;;;;;;5069690;28;20055;-60
2021/12/01 09:26:49;;;;;;;9.63;2.10;;;6.90;99.90;;;;;;5070517;28;20056;-66
2021/12/01 09:29:17;;;;;;;9.20;1.55;;;6.90;99.90;;;;;;5070476;28;20510;-65
2021/12/01 09:31:45;;;;;;;10.90;1.67;;;6.90;99.90;;;;;;5069989;28;20584;-65
2021/12/01 09:34:13;;;;;;;23.70;3.08;;;6.80;99.90;;;;;;5066770;28;20049;-66
2021/12/01 09:36:41;;;;;;;23.23;5.95;;;6.80;99.90;;;;;;5068597;28;20040;-66
2021/12/01 09:39:08;;;;;;;31.52;10.07;;;6.80;99.90;;;;;;5069746;28;20060;-61
2021/12/01 09:41:37;;;;;;;14.23;2.70;;;6.80;99.90;;;;;;5062926;28;20053;-65
2021/12/01 09:44:05;;;;;;;21.13;2.85;;;6.80;99.90;;;;;;5069756;28;20552;-64
2021/12/01 09:46:34;;;;;;;19.53;2.30;;;6.70;99.90;;;;;;5068655;28;20040;-61
2021/12/01 09:49:02;;;;;;;20.92;5.78;;;6.80;99.90;;;;;;5032443;28;20511;-61
2021/12/01 09:51:30;;;;;;;14.18;4.00;;;6.70;99.90;;;;;;5054845;28;20063;-61
2021/12/01 09:53:57;;;;;;;16.67;1.35;;;6.70;99.90;;;;;;5059629;28;20048;-61
2021/12/01 09:56:25;;;;;;;9.90;2.22;;;6.80;99.90;;;;;;5053129;28;20472;-61
2021/12/01 09:58:54;;;;;;;15.13;3.22;;;6.80;99.90;;;;;;5064496;28;20047;-62
2021/12/01 10:01:23;;;;;;;15.27;2.00;;;6.80;99.90;;;;;;5070102;28;20049;-61
2021/12/01 10:03:52;;;;;;;;;;;6.90;99.90;;;;;;5068562;28;20405;-61
2021/12/01 10:06:24;;;;;;;17.77;1.67;;;6.90;99.90;;;;;;5069777;28;19931;-62
2021/12/01 10:09:05;;;;;;;24.58;2.13;;;6.90;99.90;;;;;;5068446;28;20075;-62
2021/12/01 10:11:39;;;;;;;18.45;2.00;;;6.90;99.90;;;;;;5061116;28;20059;-62
2021/12/01 10:14:16;;;;;;;14.15;1.70;;;7.00;99.90;;;;;;5065178;28;20056;-62
2021/12/01 10:16:44;;;;;;;22.48;2.17;;;7.10;99.90;;;;;;5069492;28;20500;-62
2021/12/01 10:19:14;;;;;;;17.23;2.33;;;7.20;99.90;;;;;;5067131;28;20044;-61
2021/12/01 10:21:47;;;;;;;22.60;3.13;;;7.20;99.90;;;;;;5069208;28;20036;-63
2021/12/01 10:24:25;;;;;;;20.27;1.90;;;7.20;99.90;;;;;;5068743;28;20056;-64
2021/12/01 10:27:00;;;;;;;5.78;1.10;;;7.20;99.90;;;;;;5062612;28;20056;-65
2021/12/01 10:29:30;;;;;;;7.50;0.90;;;7.20;99.90;;;;;;5067453;28;20053;-62
2021/12/01 10:32:00;;;;;;;13.68;1.27;;;7.20;99.90;;;;;;5067772;28;20051;-62
2021/12/01 10:34:29;;;;;;;5.35;1.63;;;7.20;99.90;;;;;;5068980;28;20044;-62
2021/12/01 10:37:08;;;;;;;12.45;2.40;;;7.20;99.90;;;;;;5068792;28;20049;-60
2021/12/01 10:39:41;;;;;;;10.35;1.48;;;7.30;99.90;;;;;;5069134;28;20052;-63
2021/12/01 10:42:12;;;;;;;18.58;3.63;;;7.40;99.90;;;;;;5063167;28;20484;-61
2021/12/01 10:44:58;;;;;;;11.55;1.58;;;7.40;99.90;;;;;;5067387;28;20393;-62
2021/12/01 10:47:40;;;;;;;6.32;1.67;;;7.50;99.90;;;;;;5058597;28;20052;-62
2021/12/01 10:50:10;;;;;;;4.55;0.60;;;7.40;99.90;;;;;;5052863;28;20211;-62
2021/12/01 10:52:42;;;;;;;7.32;1.80;;;7.40;99.90;;;;;;5056480;28;20047;-62
2021/12/01 10:55:14;;;;;;;4.05;1.50;;;7.20;99.90;;;;;;5068027;28;20397;-61
2021/12/01 10:57:47;;;;;;;15.48;6.68;;;7.20;99.90;;;;;;5061719;28;20056;-61
2021/12/01 11:00:26;;;;;;;16.38;7.80;;;7.10;99.90;;;;;;5067057;28;20695;-61
2021/12/01 11:03:08;;;;;;;19.90;8.77;;;7.10;99.90;;;;;;5068301;28;20057;-61
2021/12/01 11:05:42;;;;;;;2.83;1.10;;;7.20;99.90;;;;;;5057825;28;20399;-61
2021/12/01 11:08:10;;;;;;;12.93;3.83;;;7.50;99.90;;;;;;5059092;28;20055;-61
2021/12/01 11:10:38;;;;;;;7.65;3.00;;;7.60;99.90;;;;;;5067181;28;20044;-62
2021/12/01 11:13:06;;;;;;;15.88;9.27;;;7.80;99.90;;;;;;5068105;28;20053;-60
2021/12/01 11:15:37;;;;;;;11.50;3.80;;;7.90;99.90;;;;;;5062665;28;20056;-62
2021/12/01 11:18:22;;;;;;;15.05;3.92;;;8.00;99.90;;;;;;5055319;28;20048;-61
2021/12/01 11:21:12;;;;;;;5.55;1.35;;;7.90;99.90;;;;;;5064564;28;20044;-62
2021/12/01 11:23:50;;;;;;;7.97;1.42;;;7.90;99.90;;;;;;5066996;28;20044;-62
2021/12/01 11:26:21;;;;;;;8.52;1.40;;;7.80;99.90;;;;;;5068094;28;20515;-63
2021/12/01 11:28:53;;;;;;;3.72;1.13;;;7.80;99.90;;;;;;5067489;28;20484;-61
2021/12/01 11:31:29;;;;;;;7.68;1.30;;;7.70;99.90;;;;;;5062103;28;20068;-61
2021/12/01 11:33:59;;;;;;;12.57;1.60;;;7.70;99.90;;;;;;5068084;28;20059;-62
2021/12/01 11:36:33;;;;;;;7.82;1.33;;;7.70;99.90;;;;;;5066878;28;20040;-62
2021/12/01 11:39:05;;;;;;;12.20;1.45;;;7.70;99.90;;;;;;5067895;28;20048;-63
2021/12/01 11:41:36;;;;;;;3.10;1.00;;;7.80;99.90;;;;;;5061657;28;20040;-60
2021/12/01 11:44:04;;;;;;;11.15;1.25;;;7.80;99.90;;;;;;5058949;28;20049;-67
2021/12/01 11:46:33;;;;;;;13.05;1.20;;;7.80;99.90;;;;;;5048451;28;20057;-65
2021/12/01 11:49:06;;;;;;;8.20;1.30;;;7.90;99.90;;;;;;5041548;28;20056;-66
2021/12/01 11:51:44;;;;;;;12.60;1.65;;;8.00;99.90;;;;;;5048039;28;20037;-68
2021/12/01 11:54:16;;;;;;;12.20;1.50;;;8.00;99.90;;;;;;5063811;28;20053;-67
2021/12/01 11:56:57;;;;;;;4.78;1.30;;;7.90;99.90;;;;;;5063655;28;20053;-67
2021/12/01 11:59:25;;;;;;;13.65;1.38;;;7.80;99.90;;;;;;5067147;28;20079;-66
2021/12/01 12:01:56;;;;;;;16.20;2.05;;;7.70;99.90;;;;;;5055164;28;20435;-65
2021/12/01 12:04:25;;;;;;;5.18;1.77;;;7.50;99.90;;;;;;5066491;28;20057;-65
2021/12/01 12:06:58;;;;;;;5.30;1.00;;;7.30;99.90;;;;;;5067636;28;20040;-65
2021/12/01 12:10:16;;;;;;;6.85;1.00;;;7.20;99.90;;;;;;5047844;28;20056;-61
2021/12/01 12:13:27;;;;;;;11.70;0.90;;;7.00;99.90;;;;;;5048677;28;20642;-61
2021/12/01 12:15:52;;;;;;;8.90;0.80;;;6.90;99.90;;;;;;5066963;28;20063;-60
2021/12/01 12:18:35;;;;;;;5.05;0.82;;;6.80;99.90;;;;;;5066272;28;20056;-61
2021/12/01 12:21:29;;;;;;;7.63;0.60;;;6.50;99.90;;;;;;5066127;28;20040;-60
2021/12/01 12:24:13;;;;;;;8.32;0.63;;;6.40;99.90;;;;;;5067352;28;20053;-60
2021/12/01 12:26:51;;;;;;;3.47;1.08;;;6.30;99.90;;;;;;5067169;28;20056;-61
2021/12/01 12:29:25;;;;;;;6.22;0.75;;;6.20;99.90;;;;;;5067240;28;20041;-59
2021/12/01 12:32:17;;;;;;;3.78;0.75;;;6.10;99.90;;;;;;5067224;28;20396;-59
2021/12/01 12:34:53;;;;;;;21.20;1.95;;;6.00;99.90;;;;;;5067276;28;20048;-61
2021/12/01 12:37:27;;;;;;;10.20;0.90;;;6.00;99.90;;;;;;5067299;28;20049;-61
2021/12/01 12:39:56;;;;;;;9.10;1.58;;;6.00;99.90;;;;;;5067473;28;20052;-60
2021/12/01 12:42:25;;;;;;;10.17;1.30;;;6.00;99.90;;;;;;5060254;28;20044;-60
2021/12/01 12:44:55;;;;;;;6.05;0.70;;;6.00;99.90;;;;;;5070973;28;20060;-59
2021/12/01 12:47:37;;;;;;;3.35;0.90;;;6.00;99.90;;;;;;5067442;28;20053;-59
2021/12/01 12:50:15;;;;;;;5.13;0.80;;;6.00;99.90;;;;;;5052049;28;20080;-61
2021/12/01 12:52:45;;;;;;;6.78;0.82;;;6.00;99.90;;;;;;5063277;28;20044;-59
2021/12/01 12:55:21;;;;;;;4.47;0.77;;;6.10;99.90;;;;;;5069559;28;20456;-59
2021/12/01 12:57:54;;;;;;;9.07;1.02;;;6.10;99.90;;;;;;5066664;28;20302;-60
2021/12/01 13:00:22;;;;;;;8.80;1.17;;;6.10;99.90;;;;;;5051089;28;20530;-60
2021/12/01 13:02:50;;;;;;;3.38;0.63;;;6.20;99.90;;;;;;5058011;28;20067;-59
2021/12/01 13:05:39;;;;;;;3.65;1.00;;;6.10;99.90;;;;;;5070499;28;20045;-62
2021/12/01 13:08:33;;;;;;;11.57;1.52;;;6.20;99.90;;;;;;5061610;28;20040;-59
2021/12/01 13:11:14;;;;;;;19.27;6.97;;;6.10;99.90;;;;;;5067259;28;20499;-59
2021/12/01 13:13:43;;;;;;;2.72;0.95;;;6.10;99.90;;;;;;5068052;28;20055;-63
2021/12/01 13:16:17;;;;;;;13.00;2.08;;;6.10;99.90;;;;;;5070691;28;20052;-62